Time;durP1;ratioP1;P1;durP2;ratioP2;P2;SDS_P1;SDS_P2;PMS_P1;PMS_P2;Temp;Humidity;BMP_temperature;BMP_pressure;BME280_temperature;BME280_humidity;BME280_pressure;Samples;Min_cycle;Max_cycle;Signal;HPM_P1;HPM_P2
2022/01/02 00:00:48;;;;;;;1.23;0.80;;;;;;;10.94;100.00;101756.16;6219074;23;20012;-85
2022/01/02 00:03:19;;;;;;;1.05;0.70;;;;;;;10.84;100.00;101747.63;6218625;23;20067;-83
2022/01/02 00:05:44;;;;;;;3.08;1.02;;;;;;;10.77;100.00;101749.59;6218827;23;20000;-83
2022/01/02 00:08:11;;;;;;;5.45;1.15;;;;;;;10.73;100.00;101720.50;6219515;23;20008;-83
2022/01/02 00:10:43;;;;;;;1.80;1.23;;;;;;;10.67;100.00;101707.34;6218852;23;20000;-84
2022/01/02 00:13:14;;;;;;;2.63;1.38;;;;;;;10.70;100.00;101712.56;6220152;23;20009;-84
2022/01/02 00:15:39;;;;;;;1.17;0.90;;;;;;;10.62;100.00;101704.00;6219440;23;20007;-84
2022/01/02 00:18:15;;;;;;;1.25;1.02;;;;;;;10.64;100.00;101695.06;6216898;23;20412;-84
2022/01/02 00:20:47;;;;;;;2.45;1.67;;;;;;;10.66;100.00;101687.91;6218390;23;20058;-84
2022/01/02 00:23:19;;;;;;;1.20;0.73;;;;;;;10.64;100.00;101688.84;6219022;23;20061;-83
2022/01/02 00:25:55;;;;;;;1.25;1.02;;;;;;;10.72;100.00;101697.47;6218665;23;20011;-83
2022/01/02 00:28:21;;;;;;;1.52;0.95;;;;;;;10.69;100.00;101732.09;6218881;23;20497;-84
2022/01/02 00:30:48;;;;;;;1.40;0.90;;;;;;;10.73;100.00;101726.66;6218614;23;20032;-83
2022/01/02 00:33:13;;;;;;;1.17;0.82;;;;;;;10.72;100.00;101729.34;6219247;23;20004;-83
2022/01/02 00:35:40;;;;;;;0.98;0.80;;;;;;;10.76;100.00;101725.72;6219308;23;20011;-83
2022/01/02 00:38:06;;;;;;;1.20;1.10;;;;;;;10.74;100.00;101708.94;6218104;23;20005;-83
2022/01/02 00:40:38;;;;;;;4.78;1.17;;;;;;;10.80;100.00;101695.47;6218142;23;20019;-83
2022/01/02 00:43:04;;;;;;;5.80;1.67;;;;;;;10.69;100.00;101684.28;6217766;23;20076;-83
2022/01/02 00:45:40;;;;;;;1.58;1.02;;;;;;;10.71;100.00;101682.47;6218089;23;20012;-83
2022/01/02 00:48:29;;;;;;;0.82;0.68;;;;;;;10.71;100.00;101695.75;6218242;23;20020;-83
2022/01/02 00:51:09;;;;;;;0.75;0.60;;;;;;;10.70;100.00;101686.00;6218210;23;20005;-83
2022/01/02 00:53:35;;;;;;;;;;;;;;;10.73;100.00;101681.47;6219976;23;20009;-83
2022/01/02 00:56:02;;;;;;;1.25;0.95;;;;;;;10.73;100.00;101676.16;6218131;23;19915;-83
2022/01/02 00:58:51;;;;;;;1.35;1.15;;;;;;;10.77;100.00;101676.94;6218438;23;20066;-84
2022/01/02 01:01:23;;;;;;;1.63;1.10;;;;;;;10.74;100.00;101671.75;6218874;23;20068;-83
2022/01/02 01:03:52;;;;;;;1.10;1.02;;;;;;;10.80;100.00;101666.22;6218926;23;20009;-83
2022/01/02 01:06:22;;;;;;;2.03;1.15;;;;;;;10.79;100.00;101657.38;6218466;23;20009;-83
2022/01/02 01:08:52;;;;;;;1.83;1.10;;;;;;;10.75;100.00;101670.81;6218653;23;20000;-84
2022/01/02 01:11:18;;;;;;;2.08;1.02;;;;;;;10.81;100.00;101665.31;6219208;23;20059;-83
2022/01/02 01:13:43;;;;;;;6.13;1.48;;;;;;;10.84;100.00;101665.25;6218204;23;20004;-84
2022/01/02 01:16:09;;;;;;;1.67;0.98;;;;;;;10.86;100.00;101635.97;6220753;23;20409;-83
2022/01/02 01:18:34;;;;;;;0.95;0.73;;;;;;;10.88;100.00;101613.72;6221472;23;19989;-83
2022/01/02 01:20:59;;;;;;;2.22;1.15;;;;;;;10.95;100.00;101615.28;6218955;23;20031;-83
2022/01/02 01:23:25;;;;;;;1.42;1.33;;;;;;;11.04;100.00;101614.97;6217603;23;20139;-83
2022/01/02 01:25:51;;;;;;;1.02;0.47;;;;;;;11.09;100.00;101614.81;6217570;23;20008;-83
2022/01/02 01:28:17;;;;;;;1.05;0.95;;;;;;;11.17;100.00;101605.69;6218558;23;20009;-84
2022/01/02 01:30:43;;;;;;;2.75;1.00;;;;;;;11.21;100.00;101602.00;6217440;23;20091;-84
2022/01/02 01:33:10;;;;;;;2.03;0.65;;;;;;;11.35;100.00;101589.09;6217968;23;20008;-83
2022/01/02 01:35:35;;;;;;;1.83;1.23;;;;;;;11.33;100.00;101598.91;6218564;23;20012;-84
2022/01/02 01:38:02;;;;;;;1.63;1.42;;;;;;;11.41;100.00;101594.22;6218273;23;20000;-84
2022/01/02 01:40:33;;;;;;;0.73;0.50;;;;;;;11.41;100.00;101594.22;6218094;23;20004;-84
2022/01/02 01:43:01;;;;;;;0.88;0.60;;;;;;;11.33;100.00;101585.63;6218437;23;20329;-83
2022/01/02 01:48:02;;;;;;;1.88;1.00;;;;;;;11.36;100.00;101574.88;6218061;23;20009;-84
2022/01/02 01:50:40;;;;;;;3.80;1.33;;;;;;;11.32;100.00;101564.41;6218391;23;20425;-84
2022/01/02 01:53:07;;;;;;;2.60;1.02;;;;;;;11.47;100.00;101571.88;6217940;23;20008;-84
2022/01/02 01:55:35;;;;;;;1.90;1.15;;;;;;;11.45;100.00;101563.94;6217576;23;20012;-84
2022/01/02 01:58:03;;;;;;;1.42;1.33;;;;;;;11.58;100.00;101570.53;6217162;23;20054;-84
2022/01/02 02:00:29;;;;;;;2.80;0.73;;;;;;;11.55;100.00;101560.00;6218330;23;20012;-83
2022/01/02 02:02:56;;;;;;;1.98;0.80;;;;;;;11.62;100.00;101571.31;6217786;23;20007;-85
2022/01/02 02:05:21;;;;;;;1.75;1.38;;;;;;;11.61;100.00;101562.44;6218114;23;20027;-83
2022/01/02 02:07:47;;;;;;;0.95;0.82;;;;;;;11.67;100.00;101564.94;6216773;23;20004;-84
2022/01/02 02:10:41;;;;;;;1.45;1.00;;;;;;;11.72;100.00;101572.78;6218192;23;20427;-83
2022/01/02 02:13:06;;;;;;;1.27;0.80;;;;;;;11.78;100.00;101556.56;6217871;23;20008;-83
2022/01/02 02:15:35;;;;;;;1.83;0.50;;;;;;;11.73;100.00;101558.53;6217387;23;20477;-83
2022/01/02 02:18:01;;;;;;;0.43;0.43;;;;;;;11.79;100.00;101553.84;6217965;23;20015;-83
2022/01/02 02:20:31;;;;;;;5.65;0.77;;;;;;;11.75;100.00;101544.25;6217863;23;20084;-83
2022/01/02 02:22:58;;;;;;;1.67;0.73;;;;;;;11.77;100.00;101549.53;6217596;23;20016;-84
2022/01/02 02:25:29;;;;;;;1.58;1.00;;;;;;;11.73;100.00;101535.47;6217820;23;20310;-84
2022/01/02 02:27:57;;;;;;;1.67;0.90;;;;;;;11.74;100.00;101534.53;6218237;23;20015;-84
2022/01/02 02:30:24;;;;;;;1.75;1.20;;;;;;;11.86;100.00;101533.22;6217818;23;20078;-83
2022/01/02 02:32:50;;;;;;;1.17;0.63;;;;;;;11.84;100.00;101527.94;6217638;23;20005;-83
2022/01/02 02:35:15;;;;;;;1.27;1.02;;;;;;;11.79;100.00;101532.56;6217522;23;20031;-83
2022/01/02 02:37:44;;;;;;;2.13;0.65;;;;;;;11.80;100.00;101523.66;6218055;23;20019;-83
2022/01/02 02:40:11;;;;;;;1.70;1.17;;;;;;;11.78;100.00;101529.97;6218216;23;20001;-83
2022/01/02 02:42:46;;;;;;;1.08;0.93;;;;;;;11.75;100.00;101515.00;6218367;23;20005;-84
2022/01/02 02:48:59;;;;;;;0.63;0.43;;;;;;;11.88;100.00;101494.94;6216976;23;20448;-84
2022/01/02 02:51:49;;;;;;;0.63;0.60;;;;;;;11.86;100.00;101488.84;6216883;23;20008;-83
2022/01/02 02:54:08;;;;;;;1.27;1.00;;;;;;;12.00;100.00;101475.88;6216309;23;20009;-83
2022/01/02 02:56:54;;;;;;;0.52;0.40;;;;;;;11.94;100.00;101483.22;6217219;23;20055;-84
2022/01/02 02:59:20;;;;;;;1.38;0.60;;;;;;;12.09;100.00;101503.91;6218061;23;20031;-83
2022/01/02 03:01:45;;;;;;;1.48;0.88;;;;;;;12.14;100.00;101533.91;6217441;23;20004;-84
2022/01/02 03:04:11;;;;;;;0.52;0.50;;;;;;;12.13;100.00;101519.72;6218110;23;20008;-84
2022/01/02 03:06:36;;;;;;;0.75;0.65;;;;;;;12.11;100.00;101523.38;6217655;23;20015;-84
2022/01/02 03:09:09;;;;;;;1.42;1.17;;;;;;;12.15;100.00;101525.88;6217338;23;20012;-84
2022/01/02 03:11:39;;;;;;;1.58;1.38;;;;;;;12.08;100.00;101508.41;6217734;23;20000;-83
2022/01/02 03:14:06;;;;;;;2.25;1.15;;;;;;;12.11;100.00;101494.97;6218966;23;20000;-83
2022/01/02 03:16:32;;;;;;;0.60;0.52;;;;;;;12.14;100.00;101494.84;6219572;23;20008;-84
2022/01/02 03:18:57;;;;;;;1.33;0.95;;;;;;;12.06;100.00;101477.41;6218871;23;20051;-83
2022/01/02 03:21:23;;;;;;;3.42;0.93;;;;;;;12.04;100.00;101495.25;6219724;23;20024;-84
2022/01/02 03:23:49;;;;;;;3.45;1.10;;;;;;;12.02;100.00;101478.47;6218702;23;20005;-83
2022/01/02 03:26:15;;;;;;;1.15;0.85;;;;;;;12.05;100.00;101483.69;6219906;23;20064;-83
2022/01/02 03:28:40;;;;;;;0.82;0.50;;;;;;;12.05;100.00;101471.22;6219801;23;20054;-83
2022/01/02 03:31:06;;;;;;;0.30;0.30;;;;;;;12.09;100.00;101464.84;6220108;23;20004;-83
2022/01/02 03:33:31;;;;;;;2.78;0.82;;;;;;;12.12;100.00;101458.53;6220365;23;20024;-83
2022/01/02 03:35:57;;;;;;;0.90;0.90;;;;;;;12.16;100.00;101465.50;6220770;23;20337;-83
2022/01/02 03:38:22;;;;;;;1.23;1.00;;;;;;;12.17;100.00;101440.59;6220648;23;20012;-84
2022/01/02 03:40:47;;;;;;;1.45;1.10;;;;;;;12.16;100.00;101445.03;6219871;23;20076;-83
2022/01/02 03:43:13;;;;;;;0.40;0.28;;;;;;;12.22;100.00;101438.63;6220003;23;20004;-83
2022/01/02 03:45:38;;;;;;;0.85;0.52;;;;;;;12.18;100.00;101445.00;6219599;23;20013;-84
2022/01/02 03:48:04;;;;;;;3.67;1.42;;;;;;;12.16;100.00;101458.34;6218952;23;20376;-83
2022/01/02 03:50:29;;;;;;;0.77;0.60;;;;;;;12.20;100.00;101444.00;6219130;23;20009;-83
2022/01/02 03:52:54;;;;;;;2.45;0.90;;;;;;;12.18;100.00;101431.69;6219268;23;20005;-84
2022/01/02 03:55:20;;;;;;;1.33;0.50;;;;;;;12.11;100.00;101444.38;6219817;23;20000;-83
2022/01/02 03:57:46;;;;;;;2.08;0.90;;;;;;;11.99;100.00;101434.19;6192077;23;20036;-84
2022/01/02 04:00:14;;;;;;;0.50;0.30;;;;;;;11.89;100.00;101427.50;6218432;23;20008;-84
2022/01/02 04:02:40;;;;;;;1.33;0.70;;;;;;;11.88;100.00;101430.22;6218803;23;20531;-83
2022/01/02 04:05:07;;;;;;;1.20;0.60;;;;;;;11.83;100.00;101424.22;6217930;23;20068;-84
2022/01/02 04:07:32;;;;;;;6.05;1.33;;;;;;;11.74;100.00;101427.22;6218348;23;20012;-84
2022/01/02 04:10:01;;;;;;;0.50;0.50;;;;;;;11.77;100.00;101422.63;6218319;23;20128;-84
2022/01/02 04:12:27;;;;;;;0.93;0.88;;;;;;;11.78;100.00;101424.38;6218729;23;20020;-84
2022/01/02 04:14:52;;;;;;;0.70;0.70;;;;;;;11.83;100.00;101411.75;6219035;23;20317;-84
2022/01/02 04:17:17;;;;;;;0.60;0.55;;;;;;;11.85;100.00;101417.88;6217866;23;20437;-84
2022/01/02 04:19:43;;;;;;;1.40;0.77;;;;;;;11.89;100.00;101419.53;6218890;23;20005;-83
2022/01/02 04:22:08;;;;;;;0.90;0.75;;;;;;;11.85;100.00;101415.22;6219225;23;20005;-85
2022/01/02 04:24:33;;;;;;;0.73;0.70;;;;;;;11.74;100.00;101424.56;6218179;23;20001;-84
2022/01/02 04:26:59;;;;;;;0.98;0.88;;;;;;;11.79;100.00;101425.22;6217845;23;20001;-84
2022/01/02 04:29:24;;;;;;;1.00;0.60;;;;;;;11.74;100.00;101417.44;6218331;23;20008;-84
2022/01/02 04:31:49;;;;;;;2.75;0.70;;;;;;;11.59;100.00;101407.34;6218423;23;20004;-84
2022/01/02 04:34:14;;;;;;;1.27;1.02;;;;;;;11.64;100.00;101401.88;6218726;23;20072;-84
2022/01/02 04:36:40;;;;;;;0.60;0.40;;;;;;;11.65;100.00;101388.53;6218001;23;20111;-84
2022/01/02 04:39:05;;;;;;;0.45;0.45;;;;;;;11.67;100.00;101377.81;6218386;23;20032;-84
2022/01/02 04:41:30;;;;;;;1.05;0.90;;;;;;;11.58;100.00;101368.34;6224034;23;20011;-84
2022/01/02 04:43:56;;;;;;;1.35;0.90;;;;;;;11.67;100.00;101373.38;6219527;23;20000;-85
2022/01/02 04:46:21;;;;;;;3.35;1.13;;;;;;;11.68;100.00;101374.22;6217975;23;20140;-85
2022/01/02 04:48:46;;;;;;;0.60;0.50;;;;;;;11.60;100.00;101355.88;6217638;23;20035;-84
2022/01/02 04:51:12;;;;;;;1.52;1.42;;;;;;;11.56;100.00;101367.56;6218707;23;20132;-85
2022/01/02 04:53:46;;;;;;;1.10;0.77;;;;;;;11.63;100.00;101355.78;6218207;23;20028;-84
2022/01/02 04:56:11;;;;;;;1.25;1.10;;;;;;;11.57;100.00;101340.03;6218622;23;20019;-84
2022/01/02 04:58:36;;;;;;;1.55;0.50;;;;;;;11.64;100.00;101336.25;6218556;23;19997;-84
2022/01/02 05:01:02;;;;;;;2.20;0.50;;;;;;;11.68;100.00;101335.19;6217975;23;20043;-85
2022/01/02 05:03:27;;;;;;;0.80;0.50;;;;;;;11.69;100.00;101318.28;6218266;23;20008;-84
2022/01/02 05:05:52;;;;;;;0.38;0.35;;;;;;;11.57;100.00;101316.09;6218440;23;20001;-85
2022/01/02 05:08:18;;;;;;;1.50;0.50;;;;;;;11.67;100.00;101309.53;6219176;23;20052;-85
2022/01/02 05:10:43;;;;;;;1.95;0.98;;;;;;;11.71;100.00;101315.56;6218713;23;20000;-85
2022/01/02 05:13:08;;;;;;;1.52;1.15;;;;;;;11.70;100.00;101305.84;6219427;23;20321;-85
2022/01/02 05:15:34;;;;;;;3.50;0.55;;;;;;;11.80;100.00;101300.09;6217940;23;20471;-84
2022/01/02 05:17:59;;;;;;;1.15;1.02;;;;;;;11.86;100.00;101297.22;6217055;23;20001;-84
2022/01/02 05:20:24;;;;;;;0.65;0.65;;;;;;;11.89;100.00;101288.22;6217778;23;20001;-84
2022/01/02 05:22:50;;;;;;;0.75;0.75;;;;;;;11.90;100.00;101293.47;6220024;23;20007;-85
2022/01/02 05:25:15;;;;;;;1.25;0.55;;;;;;;11.91;100.00;101281.88;6220282;23;20013;-85
2022/01/02 05:27:40;;;;;;;0.68;0.68;;;;;;;11.93;100.00;101274.72;6217667;23;20340;-84
2022/01/02 05:30:06;;;;;;;2.55;0.60;;;;;;;11.91;100.00;101276.56;6217635;23;20399;-85
2022/01/02 05:32:31;;;;;;;0.88;0.55;;;;;;;11.85;100.00;101268.84;6217976;23;20011;-85
2022/01/02 05:34:56;;;;;;;1.30;0.90;;;;;;;11.85;100.00;101271.50;6217641;23;20306;-85
2022/01/02 05:37:22;;;;;;;0.60;0.40;;;;;;;11.88;100.00;101262.53;6218416;23;20433;-84
2022/01/02 05:39:47;;;;;;;1.70;0.47;;;;;;;11.86;100.00;101257.28;6217748;23;20005;-84
2022/01/02 05:42:12;;;;;;;1.27;0.60;;;;;;;11.81;100.00;101243.28;6217819;23;20005;-84
2022/01/02 05:44:38;;;;;;;0.65;0.40;;;;;;;11.84;100.00;101243.16;6218347;23;20005;-84
2022/01/02 05:47:03;;;;;;;0.68;0.68;;;;;;;11.75;100.00;101232.91;6217462;23;20013;-84
2022/01/02 05:49:29;;;;;;;1.38;0.68;;;;;;;11.76;100.00;101229.31;6216503;23;20004;-84
2022/01/02 05:51:54;;;;;;;0.65;0.43;;;;;;;11.76;100.00;101221.31;6218422;23;20302;-84
2022/01/02 05:54:19;;;;;;;0.63;0.43;;;;;;;11.72;100.00;101216.19;6218617;23;20004;-85
2022/01/02 05:56:44;;;;;;;2.53;0.90;;;;;;;11.64;100.00;101215.66;6217947;23;19996;-83
2022/01/02 05:59:10;;;;;;;3.60;0.63;;;;;;;11.62;100.00;101194.38;6217977;23;20001;-83
2022/01/02 06:01:35;;;;;;;1.17;0.90;;;;;;;11.57;100.00;101200.81;6218114;23;20071;-83
2022/01/02 06:04:01;;;;;;;3.15;0.93;;;;;;;11.53;100.00;101199.22;6217728;23;20070;-84
2022/01/02 06:06:26;;;;;;;4.82;0.88;;;;;;;11.52;100.00;101179.72;6216162;23;20040;-84
2022/01/02 06:08:52;;;;;;;1.25;0.65;;;;;;;11.61;100.00;101175.84;6216833;23;20001;-83
2022/01/02 06:11:17;;;;;;;0.68;0.50;;;;;;;11.46;100.00;101189.75;6217648;23;20007;-88
2022/01/02 06:13:42;;;;;;;1.00;0.75;;;;;;;11.45;100.00;101164.97;6217960;23;20000;-87
2022/01/02 06:16:08;;;;;;;1.23;0.85;;;;;;;11.50;100.00;101164.78;6217699;23;20410;-84
2022/01/02 06:18:34;;;;;;;2.67;1.20;;;;;;;11.54;100.00;101158.38;6218448;23;20057;-84
2022/01/02 06:20:59;;;;;;;1.70;1.58;;;;;;;11.56;100.00;101160.06;6217209;23;20008;-83
2022/01/02 06:23:24;;;;;;;0.70;0.40;;;;;;;11.52;100.00;101150.47;6217663;23;20309;-86
2022/01/02 06:25:50;;;;;;;3.63;1.55;;;;;;;11.49;100.00;101144.41;6218168;23;20092;-84
2022/01/02 06:28:15;;;;;;;3.50;0.50;;;;;;;11.49;100.00;101141.75;6191198;23;20448;-85
2022/01/02 06:30:40;;;;;;;1.15;1.00;;;;;;;11.52;100.00;101133.66;6218442;23;20114;-86
2022/01/02 06:33:06;;;;;;;2.00;0.55;;;;;;;11.59;100.00;101129.78;6216620;23;20414;-84
2022/01/02 06:35:32;;;;;;;1.52;1.10;;;;;;;11.57;100.00;101121.00;6217370;23;20027;-84
2022/01/02 06:37:59;;;;;;;4.35;0.80;;;;;;;11.62;100.00;101113.69;6215539;23;20341;-85
2022/01/02 06:40:25;;;;;;;1.10;0.70;;;;;;;11.65;100.00;101109.16;6217767;23;20004;-86
2022/01/02 06:42:50;;;;;;;1.88;0.95;;;;;;;11.56;100.00;101116.63;6216944;23;20428;-87
2022/01/02 06:45:16;;;;;;;3.20;0.73;;;;;;;11.60;100.00;101103.13;6217677;23;20055;-86
2022/01/02 06:47:42;;;;;;;4.75;1.50;;;;;;;11.57;100.00;101100.59;6218923;23;20008;-87
2022/01/02 06:50:08;;;;;;;1.35;0.80;;;;;;;11.68;100.00;101101.03;6220288;23;20008;-86
2022/01/02 06:52:34;;;;;;;1.67;0.85;;;;;;;11.63;100.00;101095.03;6220072;23;19988;-86
2022/01/02 06:54:59;;;;;;;1.05;0.90;;;;;;;11.69;100.00;101100.09;6218438;23;20004;-85
2022/01/02 06:57:24;;;;;;;1.50;0.90;;;;;;;11.68;100.00;101085.06;6219228;23;20013;-85
2022/01/02 06:59:50;;;;;;;1.38;0.60;;;;;;;11.74;100.00;101097.25;6219262;22;20008;-86
2022/01/02 07:02:39;;;;;;;0.85;0.75;;;;;;;11.80;100.00;101086.34;6220404;23;20051;-89
2022/01/02 07:05:06;;;;;;;1.00;0.75;;;;;;;11.74;100.00;101087.47;6217853;23;20082;-89
2022/01/02 07:07:31;;;;;;;1.50;0.60;;;;;;;11.81;100.00;101082.75;6219692;23;20035;-89
2022/01/02 07:09:57;;;;;;;0.75;0.43;;;;;;;11.83;100.00;101084.41;6219637;23;20001;-88
2022/01/02 07:12:23;;;;;;;1.33;0.80;;;;;;;11.86;100.00;101113.56;6219758;23;20031;-90
2022/01/02 07:14:50;;;;;;;1.48;1.33;;;;;;;11.67;100.00;101122.38;6220080;23;20324;-89
2022/01/02 07:17:15;;;;;;;2.15;1.20;;;;;;;11.47;100.00;101117.03;6219361;23;20004;-90
2022/01/02 07:19:41;;;;;;;0.95;0.73;;;;;;;11.53;100.00;101108.78;6219569;23;20088;-89
2022/01/02 07:22:06;;;;;;;0.55;0.50;;;;;;;11.42;100.00;101122.53;6219547;23;20008;-88
2022/01/02 07:24:33;;;;;;;1.23;0.55;;;;;;;11.56;100.00;101112.19;6219419;23;20001;-89
2022/01/02 07:27:02;;;;;;;1.73;0.40;;;;;;;11.65;100.00;101117.13;6219923;23;20008;-89
2022/01/02 07:29:27;;;;;;;0.60;0.35;;;;;;;11.69;100.00;101120.53;6220102;23;20001;-88
2022/01/02 07:31:53;;;;;;;1.25;0.60;;;;;;;11.71;100.00;101135.50;6219443;23;20001;-89
2022/01/02 07:34:18;;;;;;;0.68;0.68;;;;;;;11.76;100.00;101122.00;6219846;23;20409;-88
2022/01/02 07:36:46;;;;;;;1.13;0.93;;;;;;;11.77;100.00;101132.56;6219738;23;20028;-89
2022/01/02 07:39:12;;;;;;;1.20;0.45;;;;;;;11.79;100.00;101130.72;6219655;23;20005;-89
2022/01/02 07:58:42;;;;;;;0.88;0.88;;;;;;;11.66;100.00;101126.00;6225835;22;20073;31
2022/01/02 08:01:50;;;;;;;;;;;;;;;11.75;100.00;101115.81;6189056;23;20120;-90
2022/01/02 08:04:16;;;;;;;1.35;0.35;;;;;;;11.78;100.00;101123.66;6189307;23;19919;-84
2022/01/02 08:07:19;;;;;;;0.68;0.68;;;;;;;11.84;100.00;101120.75;6188619;23;20016;-86
2022/01/02 08:09:44;;;;;;;2.60;0.40;;;;;;;11.83;100.00;101126.97;6189216;23;20440;-87
2022/01/02 08:12:20;;;;;;;1.08;0.63;;;;;;;11.83;100.00;101115.50;6188656;23;20005;-85
2022/01/02 08:14:45;;;;;;;1.50;0.80;;;;;;;11.82;100.00;101116.41;6185936;23;20445;-87
2022/01/02 08:17:12;;;;;;;1.33;0.88;;;;;;;11.69;100.00;101112.56;6189451;23;20012;-86
2022/01/02 08:19:38;;;;;;;0.60;0.50;;;;;;;11.59;100.00;101127.13;6189284;23;20024;-89
2022/01/02 08:22:03;;;;;;;0.95;0.73;;;;;;;11.56;100.00;101116.63;6188502;23;20442;-87
2022/01/02 08:24:28;;;;;;;1.35;0.47;;;;;;;11.47;100.00;101123.19;6188908;23;20476;-88
2022/01/02 08:26:54;;;;;;;1.55;0.93;;;;;;;11.36;100.00;101128.09;6188622;23;20033;-85
2022/01/02 08:29:19;;;;;;;3.03;1.30;;;;;;;11.30;100.00;101116.88;6189257;23;20005;-87
2022/01/02 08:31:44;;;;;;;2.92;0.95;;;;;;;11.26;100.00;101104.59;6188662;23;20307;-85
2022/01/02 08:34:10;;;;;;;0.93;0.50;;;;;;;11.27;100.00;101115.19;6189425;23;20009;-91
2022/01/02 08:36:44;;;;;;;2.88;1.40;;;;;;;11.30;100.00;101127.50;6188066;23;20001;-89
2022/01/02 08:39:09;;;;;;;0.80;0.57;;;;;;;11.28;100.00;101122.25;6188192;23;20435;-87
2022/01/02 08:41:35;;;;;;;1.00;0.75;;;;;;;11.23;100.00;101115.38;6188313;23;20009;-88
2022/01/02 08:44:00;;;;;;;1.00;0.90;;;;;;;11.20;100.00;101103.06;6189793;23;20001;-87
2022/01/02 08:46:25;;;;;;;1.17;0.88;;;;;;;11.25;100.00;101106.38;6186875;23;20397;-88
2022/01/02 08:48:51;;;;;;;2.05;1.23;;;;;;;11.17;100.00;101087.25;6188540;23;20005;-86
2022/01/02 08:51:16;;;;;;;1.45;1.08;;;;;;;11.18;100.00;101082.78;6189242;23;20001;-84
2022/01/02 08:53:42;;;;;;;1.50;1.13;;;;;;;11.14;100.00;101092.66;6189356;23;20021;-87
2022/01/02 08:56:08;;;;;;;1.45;0.80;;;;;;;11.12;100.00;101086.56;6188546;23;20005;-88
2022/01/02 08:58:33;;;;;;;1.35;1.20;;;;;;;11.09;100.00;101096.47;6187552;23;20075;-88
2022/01/02 09:01:00;;;;;;;1.55;0.82;;;;;;;11.11;100.00;101100.78;6188776;23;20013;-87
2022/01/02 09:03:26;;;;;;;3.95;1.40;;;;;;;11.07;100.00;101100.97;6189228;23;20311;-86
2022/01/02 09:05:51;;;;;;;1.27;1.08;;;;;;;11.10;100.00;101093.75;6188691;23;20059;-87
2022/01/02 09:08:16;;;;;;;1.52;0.73;;;;;;;11.21;100.00;101099.47;6188869;23;20005;-87
2022/01/02 09:10:42;;;;;;;1.50;0.77;;;;;;;11.24;100.00;101095.81;6187900;23;20005;-86
2022/01/02 09:13:08;;;;;;;1.30;1.00;;;;;;;11.23;100.00;101094.97;6187458;23;20001;-88
2022/01/02 09:15:34;;;;;;;1.10;1.00;;;;;;;11.28;100.00;101093.00;6187452;23;20079;-87
2022/01/02 09:17:59;;;;;;;2.17;0.70;;;;;;;11.27;100.00;101107.19;6188523;23;20405;-86
2022/01/02 09:20:25;;;;;;;2.20;1.08;;;;;;;11.37;100.00;101116.53;6188322;23;20076;-86
2022/01/02 09:22:51;;;;;;;1.10;0.70;;;;;;;11.51;100.00;101102.66;6188435;23;20444;-85
2022/01/02 09:25:16;;;;;;;1.85;1.33;;;;;;;11.49;100.00;101109.81;6188899;23;20076;-87
2022/01/02 09:27:44;;;;;;;5.57;2.10;;;;;;;11.49;100.00;101101.84;6188434;23;20016;-85
2022/01/02 09:30:10;;;;;;;1.77;0.90;;;;;;;11.56;100.00;101120.16;6187807;23;20016;-85
2022/01/02 09:32:36;;;;;;;1.25;0.95;;;;;;;11.62;100.00;101111.91;6188041;23;20009;-86
2022/01/02 09:35:04;;;;;;;0.98;0.50;;;;;;;11.65;100.00;101119.78;6187748;23;20011;-85
2022/01/02 09:37:29;;;;;;;2.67;1.95;;;;;;;11.68;100.00;101111.69;6188074;23;20724;-85
2022/01/02 09:39:55;;;;;;;1.85;1.17;;;;;;;11.67;100.00;101122.38;6187830;23;20016;-84
2022/01/02 09:42:20;;;;;;;0.75;0.60;;;;;;;11.68;100.00;101118.78;6188397;23;20059;-85
2022/01/02 09:44:46;;;;;;;0.93;0.70;;;;;;;11.68;100.00;101103.69;6186801;23;19993;-86
2022/01/02 09:47:12;;;;;;;1.52;1.23;;;;;;;11.63;100.00;101118.16;6187963;23;20016;-85
2022/01/02 09:49:39;;;;;;;1.58;1.33;;;;;;;11.60;100.00;101121.75;6187744;23;20008;-84
2022/01/02 09:52:05;;;;;;;2.22;1.40;;;;;;;11.67;100.00;101111.75;6187094;23;20072;-83
2022/01/02 09:54:34;;;;;;;1.30;0.70;;;;;;;11.70;100.00;101120.47;6188461;23;20012;-86
2022/01/02 09:57:01;;;;;;;1.85;1.38;;;;;;;11.83;100.00;101124.31;6189020;23;20009;-82
2022/01/02 09:59:27;;;;;;;0.88;0.63;;;;;;;11.97;100.00;101121.94;6188365;23;20024;-85
2022/01/02 10:01:54;;;;;;;0.82;0.55;;;;;;;11.99;100.00;101114.72;6187295;23;20005;-84
2022/01/02 10:04:41;;;;;;;2.05;1.25;;;;;;;11.96;100.00;101119.34;6187317;23;20008;-83
2022/01/02 10:07:25;;;;;;;1.25;1.08;;;;;;;12.05;100.00;101125.09;6186316;23;20011;-84
2022/01/02 10:09:53;;;;;;;1.20;0.82;;;;;;;11.99;100.00;101114.72;6187760;23;20001;-84
2022/01/02 10:12:25;;;;;;;1.80;1.23;;;;;;;11.94;100.00;101113.22;6187705;23;20001;-85
2022/01/02 10:15:05;;;;;;;1.20;0.50;;;;;;;11.92;100.00;101117.75;6188098;23;20005;-84
2022/01/02 10:17:50;;;;;;;3.90;1.40;;;;;;;11.95;100.00;101117.59;6188187;23;20001;-83
2022/01/02 10:20:16;;;;;;;0.60;0.45;;;;;;;11.91;100.00;101110.69;6187951;23;20029;-83
2022/01/02 10:23:05;;;;;;;3.05;1.17;;;;;;;11.84;100.00;101122.53;6189256;23;20059;-83
2022/01/02 10:25:56;;;;;;;1.30;0.90;;;;;;;11.86;100.00;101123.34;6189428;23;20005;-84
2022/01/02 10:28:41;;;;;;;4.43;1.58;;;;;;;11.81;100.00;101125.31;6186746;23;20353;-84
2022/01/02 10:31:10;;;;;;;0.60;0.57;;;;;;;11.85;100.00;101132.25;6189358;23;20087;-84
2022/01/02 10:33:51;;;;;;;1.45;1.08;;;;;;;11.83;100.00;101123.47;6188970;23;20029;-83
2022/01/02 10:36:34;;;;;;;1.33;0.82;;;;;;;11.84;100.00;101134.06;6189672;23;20009;-83
2022/01/02 10:39:06;;;;;;;5.43;1.08;;;;;;;11.82;100.00;101130.56;6189377;23;20040;-83
2022/01/02 10:41:45;;;;;;;2.75;1.00;;;;;;;11.87;100.00;101128.59;6189685;23;20032;-82
2022/01/02 10:44:29;;;;;;;1.25;0.98;;;;;;;11.88;100.00;101138.28;6185292;23;20005;-84
2022/01/02 10:47:24;;;;;;;0.77;0.60;;;;;;;11.90;100.00;101132.91;6188421;23;20477;-84
2022/01/02 10:50:04;;;;;;;0.57;0.40;;;;;;;12.02;100.00;101114.59;6189916;23;20055;-84
2022/01/02 10:52:47;;;;;;;2.13;1.88;;;;;;;12.04;100.00;101131.38;6189933;23;20005;-83
2022/01/02 10:55:15;;;;;;;0.70;0.47;;;;;;;12.10;100.00;101149.75;6190004;23;20005;-89
2022/01/02 10:57:47;;;;;;;1.50;1.05;;;;;;;12.19;100.00;101137.81;6191415;23;20084;-94
2022/01/02 11:00:14;;;;;;;1.17;0.90;;;;;;;12.27;100.00;101135.69;6190167;23;20009;-89
2022/01/02 11:02:47;;;;;;;2.63;0.93;;;;;;;12.22;100.00;101138.56;6189640;23;20001;-89
2022/01/02 11:05:15;;;;;;;6.50;1.02;;;;;;;12.28;100.00;101129.41;6188198;23;20013;-89
2022/01/02 11:07:49;;;;;;;4.65;0.88;;;;;;;12.33;100.00;101146.94;6188932;23;20088;-86
2022/01/02 11:10:17;;;;;;;2.25;1.65;;;;;;;12.52;100.00;101156.75;6189968;23;20048;-90
2022/01/02 11:12:43;;;;;;;2.85;1.38;;;;;;;12.46;100.00;101146.38;6189590;23;20009;-86
2022/01/02 11:15:18;;;;;;;2.28;0.60;;;;;;;12.52;100.00;101146.09;6189570;23;20044;-90
2022/01/02 11:17:47;;;;;;;2.38;0.88;;;;;;;12.49;100.00;101147.09;6190213;23;20005;-93
2022/01/02 11:20:18;;;;;;;3.88;1.48;;;;;;;12.50;100.00;101151.50;6189151;23;20009;-90
2022/01/02 11:23:12;;;;;;;0.80;0.75;;;;;;;12.56;100.00;101147.69;6189944;23;20060;-86
2022/01/02 11:25:55;;;;;;;2.80;0.85;;;;;;;12.48;100.00;101161.34;6190815;23;20121;-89
2022/01/02 11:28:30;;;;;;;0.95;0.45;;;;;;;12.47;100.00;101167.63;6189392;23;20016;-88
2022/01/02 11:30:55;;;;;;;5.03;1.10;;;;;;;12.46;100.00;101163.22;6189259;23;20012;-87
2022/01/02 11:33:33;;;;;;;6.65;1.17;;;;;;;12.25;100.00;101159.72;6189584;23;20333;-89
2022/01/02 11:36:43;;;;;;;3.97;1.35;;;;;;;12.33;100.00;101170.91;6190620;23;20028;-91
2022/01/02 11:39:13;;;;;;;1.48;0.82;;;;;;;12.25;100.00;101164.19;6187010;23;20009;-87
2022/01/02 11:41:40;;;;;;;;;;;;;;;12.13;100.00;101170.91;6189307;23;20369;-88
2022/01/02 11:44:19;;;;;;;3.22;1.63;;;;;;;12.20;100.00;101164.38;6188719;23;19904;-88
2022/01/02 11:46:56;;;;;;;3.95;1.45;;;;;;;12.33;100.00;101184.22;6185565;23;20016;-91